createdAt,value
2023-04-27T00:01:51.534Z,1.95
2023-04-27T00:04:19.260Z,2.00
2023-04-27T00:06:46.072Z,2.60
2023-04-27T00:09:12.991Z,1.88
2023-04-27T00:11:39.558Z,2.33
2023-04-27T00:14:06.033Z,2.10
2023-04-27T00:16:32.555Z,2.30
2023-04-27T00:18:59.003Z,1.80
2023-04-27T00:21:25.448Z,2.95
2023-04-27T00:23:51.902Z,2.17
2023-04-27T00:26:18.288Z,2.22
2023-04-27T00:28:44.702Z,3.67
2023-04-27T00:31:11.321Z,2.53
2023-04-27T00:33:37.864Z,2.70
2023-04-27T00:36:04.526Z,2.90
2023-04-27T00:38:31.243Z,2.47
2023-04-27T00:41:02.400Z,2.22
2023-04-27T00:43:28.874Z,2.65
2023-04-27T00:45:55.555Z,2.10
2023-04-27T00:48:22.464Z,2.85
2023-04-27T00:50:49.552Z,2.47
2023-04-27T00:53:16.133Z,3.47
2023-04-27T00:55:42.543Z,4.35
2023-04-27T00:58:08.993Z,2.63
2023-04-27T01:00:36.366Z,3.25
2023-04-27T01:03:04.586Z,2.80
2023-04-27T01:05:32.576Z,3.25
2023-04-27T01:07:59.264Z,3.10
2023-04-27T01:10:25.682Z,3.40
2023-04-27T01:12:52.241Z,2.85
2023-04-27T01:15:18.711Z,3.78
2023-04-27T01:17:45.186Z,2.90
2023-04-27T01:20:12.043Z,2.70
2023-04-27T01:22:38.929Z,2.90
2023-04-27T01:25:06.561Z,2.83
2023-04-27T01:27:32.966Z,2.42
2023-04-27T01:29:59.462Z,3.03
2023-04-27T01:32:26.023Z,2.53
2023-04-27T01:34:52.614Z,2.58
2023-04-27T01:37:19.058Z,2.55
2023-04-27T01:39:45.770Z,2.80
2023-04-27T01:42:12.209Z,2.25
2023-04-27T01:44:38.786Z,2.45
2023-04-27T01:47:05.167Z,2.40
2023-04-27T01:49:31.572Z,2.45
2023-04-27T01:51:58.061Z,2.42
2023-04-27T01:54:25.584Z,2.60
2023-04-27T01:56:53.198Z,2.90
2023-04-27T01:59:19.627Z,2.35
2023-04-27T02:01:46.064Z,2.20
2023-04-27T02:04:12.767Z,2.42
2023-04-27T02:06:39.447Z,2.20
2023-04-27T02:09:06.010Z,2.40
2023-04-27T02:11:32.457Z,3.10
2023-04-27T02:13:58.942Z,2.65
2023-04-27T02:16:25.436Z,2.90
2023-04-27T02:18:53.706Z,2.50
2023-04-27T02:21:20.217Z,3.22
2023-04-27T02:23:46.678Z,2.85
2023-04-27T02:26:20.423Z,2.60
2023-04-27T02:28:50.119Z,2.78
2023-04-27T02:31:17.110Z,3.03
2023-04-27T02:33:43.632Z,2.72
2023-04-27T02:36:10.007Z,2.78
2023-04-27T02:38:36.483Z,3.58
2023-04-27T02:41:03.041Z,2.95
2023-04-27T02:43:29.463Z,2.97
2023-04-27T02:45:55.850Z,3.33
2023-04-27T02:48:22.254Z,2.72
2023-04-27T02:50:48.660Z,2.78
2023-04-27T02:53:15.435Z,2.97
2023-04-27T02:55:49.732Z,3.15
2023-04-27T02:58:16.859Z,3.17
2023-04-27T03:00:43.790Z,3.25
2023-04-27T03:03:10.354Z,2.42
2023-04-27T03:05:37.539Z,3.15
2023-04-27T03:08:04.337Z,2.55
2023-04-27T03:10:30.828Z,3.10
2023-04-27T03:12:57.257Z,2.78
2023-04-27T03:15:23.687Z,3.55
2023-04-27T03:17:50.258Z,3.08
2023-04-27T03:20:16.732Z,2.70
2023-04-27T03:22:45.667Z,2.75
2023-04-27T03:25:12.185Z,3.15
2023-04-27T03:27:38.624Z,2.88
2023-04-27T03:30:05.719Z,3.38
2023-04-27T03:32:32.259Z,2.88
2023-04-27T03:34:58.674Z,2.75
2023-04-27T03:37:25.138Z,2.85
2023-04-27T03:39:52.703Z,3.30
2023-04-27T03:42:19.125Z,3.83
2023-04-27T03:44:45.544Z,3.20
2023-04-27T03:47:12.051Z,3.22
2023-04-27T03:49:38.417Z,2.58
2023-04-27T03:52:04.820Z,3.38
2023-04-27T03:54:31.725Z,4.00
2023-04-27T03:56:58.231Z,3.83
2023-04-27T03:59:24.641Z,3.97
2023-04-27T04:01:51.765Z,2.70
2023-04-27T04:04:18.355Z,3.47
2023-04-27T04:06:44.883Z,2.80
2023-04-27T04:09:12.823Z,2.72
2023-04-27T04:11:39.478Z,3.30
2023-04-27T04:14:05.929Z,3.25
2023-04-27T04:16:33.821Z,3.17
2023-04-27T04:19:00.263Z,3.83
2023-04-27T04:21:26.718Z,4.55
2023-04-27T04:23:53.153Z,3.72
2023-04-27T04:26:20.616Z,4.47
2023-04-27T04:28:46.996Z,3.58
2023-04-27T04:31:14.986Z,3.03
2023-04-27T04:33:41.441Z,3.33
2023-04-27T04:36:08.038Z,3.92
2023-04-27T04:38:34.605Z,3.95
2023-04-27T04:41:01.085Z,3.78
2023-04-27T04:43:27.741Z,2.95
2023-04-27T04:45:54.213Z,4.32
2023-04-27T04:48:20.598Z,3.00
2023-04-27T04:50:47.114Z,3.40
2023-04-27T04:53:13.534Z,2.95
2023-04-27T04:55:40.948Z,2.90
2023-04-27T04:58:07.457Z,3.25
2023-04-27T05:00:33.918Z,3.28
2023-04-27T05:03:01.404Z,3.08
2023-04-27T05:05:27.964Z,3.38
2023-04-27T05:07:54.382Z,4.47
2023-04-27T05:10:20.925Z,3.25
2023-04-27T05:12:47.287Z,2.92
2023-04-27T05:15:13.931Z,3.15
2023-04-27T05:17:40.549Z,3.22
2023-04-27T05:20:08.126Z,3.10
2023-04-27T05:22:34.559Z,3.28
2023-04-27T05:25:01.165Z,3.30
2023-04-27T05:27:27.625Z,2.83
2023-04-27T05:29:54.025Z,3.10
2023-04-27T05:32:20.443Z,2.90
2023-04-27T05:34:49.299Z,3.45
2023-04-27T05:37:16.084Z,3.30
2023-04-27T05:39:42.497Z,3.22
2023-04-27T05:42:08.923Z,3.17
2023-04-27T05:44:35.632Z,3.50
2023-04-27T05:47:02.100Z,5.03
2023-04-27T05:49:28.610Z,4.47
2023-04-27T05:51:55.478Z,3.20
2023-04-27T05:54:21.979Z,3.88
2023-04-27T05:56:48.455Z,3.85
2023-04-27T05:59:15.264Z,3.97
2023-04-27T06:01:41.973Z,3.45
2023-04-27T06:04:08.760Z,3.30
2023-04-27T06:06:35.460Z,3.75
2023-04-27T06:09:02.047Z,3.40
2023-04-27T06:11:28.577Z,2.95
2023-04-27T06:13:55.016Z,2.65
2023-04-27T06:16:21.537Z,3.40
2023-04-27T06:18:50.539Z,3.42
2023-04-27T06:21:17.116Z,3.13
2023-04-27T06:23:43.542Z,4.60
2023-04-27T06:26:10.001Z,3.47
2023-04-27T06:28:36.506Z,2.70
2023-04-27T06:31:03.181Z,3.13
2023-04-27T06:33:29.586Z,3.30
2023-04-27T06:35:56.009Z,2.63
2023-04-27T06:38:22.449Z,2.85
2023-04-27T06:40:53.028Z,2.58
2023-04-27T06:43:19.589Z,2.10
2023-04-27T06:45:46.073Z,2.70
2023-04-27T06:48:12.577Z,2.38
2023-04-27T06:50:39.043Z,2.58
2023-04-27T06:53:05.426Z,4.30
2023-04-27T06:55:31.845Z,3.58
2023-04-27T06:57:58.274Z,3.17
2023-04-27T07:00:24.789Z,2.20
2023-04-27T07:02:51.660Z,2.45
2023-04-27T07:05:18.648Z,2.47
2023-04-27T07:07:45.136Z,2.22
2023-04-27T07:10:11.752Z,1.98
2023-04-27T07:12:39.779Z,1.83
2023-04-27T07:15:07.150Z,2.05
2023-04-27T07:17:33.813Z,2.63
2023-04-27T07:20:02.048Z,2.05
2023-04-27T07:22:28.898Z,1.88
2023-04-27T07:24:55.302Z,2.30
2023-04-27T07:27:22.241Z,2.38
2023-04-27T07:29:48.709Z,2.00
2023-04-27T07:32:15.638Z,3.60
2023-04-27T07:34:52.705Z,2.47
2023-04-27T07:37:20.441Z,2.20
2023-04-27T07:39:47.329Z,2.67
2023-04-27T07:42:13.741Z,1.88
2023-04-27T07:44:40.800Z,2.95
2023-04-27T07:47:07.373Z,2.60
2023-04-27T07:49:35.000Z,2.15
2023-04-27T07:52:01.472Z,2.13
2023-04-27T07:54:27.925Z,3.05
2023-04-27T07:56:54.705Z,1.92
2023-04-27T07:59:21.204Z,2.08
2023-04-27T08:01:47.948Z,1.70
2023-04-27T08:04:16.009Z,3.55
2023-04-27T08:06:43.200Z,1.67
2023-04-27T08:09:10.024Z,2.25
2023-04-27T08:11:36.611Z,1.95
2023-04-27T08:14:03.229Z,2.83
2023-04-27T08:16:29.807Z,1.70
2023-04-27T08:18:57.563Z,2.42
2023-04-27T08:21:25.032Z,1.60
2023-04-27T08:23:51.530Z,1.45
2023-04-27T08:26:18.302Z,2.80
2023-04-27T08:28:44.734Z,1.92
2023-04-27T08:31:11.330Z,1.80
2023-04-27T08:33:37.815Z,1.80
2023-04-27T08:36:04.606Z,1.60
2023-04-27T08:38:31.090Z,1.77
2023-04-27T08:41:00.830Z,1.60
2023-04-27T08:43:35.902Z,1.90
2023-04-27T08:46:02.845Z,1.88
2023-04-27T08:48:29.379Z,1.60
2023-04-27T08:50:57.375Z,2.10
2023-04-27T08:53:23.908Z,1.60
2023-04-27T08:55:51.330Z,2.50
2023-04-27T08:58:18.141Z,1.80
2023-04-27T09:00:45.759Z,2.20
2023-04-27T09:03:25.733Z,1.90
2023-04-27T09:06:03.398Z,1.60
2023-04-27T09:08:43.416Z,2.22
2023-04-27T09:11:09.925Z,1.70
2023-04-27T09:13:40.637Z,1.88
2023-04-27T09:16:07.398Z,1.90
2023-04-27T09:18:37.829Z,2.35
2023-04-27T09:21:04.723Z,2.00
2023-04-27T09:23:38.379Z,1.63
2023-04-27T09:26:08.231Z,1.13
2023-04-27T09:28:39.776Z,1.55
2023-04-27T09:31:09.083Z,1.60
2023-04-27T09:33:36.118Z,1.48
2023-04-27T09:36:04.780Z,1.77
2023-04-27T09:38:31.821Z,2.55
2023-04-27T09:40:59.981Z,1.42
2023-04-27T09:43:28.604Z,2.03
2023-04-27T09:45:55.948Z,1.70
2023-04-27T09:48:24.164Z,1.60
2023-04-27T09:50:51.879Z,1.77
2023-04-27T09:53:20.411Z,1.70
2023-04-27T09:56:26.021Z,1.38
2023-04-27T09:58:52.371Z,1.85
2023-04-27T10:01:34.652Z,1.63
2023-04-27T10:04:29.573Z,1.70
2023-04-27T10:07:08.279Z,2.13
2023-04-27T10:09:41.600Z,1.80
2023-04-27T10:12:22.679Z,1.55
2023-04-27T10:14:51.388Z,1.83
2023-04-27T10:17:18.577Z,1.70
2023-04-27T10:20:01.276Z,1.73
2023-04-27T10:22:44.443Z,1.60
2023-04-27T10:25:22.080Z,1.60
2023-04-27T10:28:03.101Z,2.70
2023-04-27T10:30:35.891Z,1.48
2023-04-27T10:33:08.442Z,1.50
2023-04-27T10:35:36.233Z,1.75
2023-04-27T10:38:09.588Z,1.63
2023-04-27T10:40:37.577Z,1.55
2023-04-27T10:43:11.731Z,1.63
2023-04-27T10:45:38.664Z,2.08
2023-04-27T10:48:05.512Z,1.67
2023-04-27T10:50:32.262Z,1.52
2023-04-27T10:53:04.422Z,1.50
2023-04-27T10:55:31.578Z,1.60
2023-04-27T10:57:59.110Z,1.58
2023-04-27T11:00:45.888Z,1.50
2023-04-27T11:03:18.382Z,2.35
2023-04-27T11:05:47.032Z,2.25
2023-04-27T11:08:16.030Z,1.50
2023-04-27T11:10:51.359Z,1.80
2023-04-27T11:13:22.032Z,1.80
2023-04-27T11:15:54.763Z,2.25
2023-04-27T11:18:24.753Z,1.58
2023-04-27T11:20:53.400Z,1.67
2023-04-27T11:23:36.827Z,1.25
2023-04-27T11:26:14.982Z,1.45
2023-04-27T11:28:46.086Z,1.35
2023-04-27T11:31:12.737Z,1.10
2023-04-27T11:33:40.187Z,2.40
2023-04-27T11:36:26.587Z,2.47
2023-04-27T11:38:57.795Z,1.30
2023-04-27T11:41:36.292Z,1.00
2023-04-27T11:44:07.765Z,1.40
2023-04-27T11:46:38.642Z,1.60
2023-04-27T11:49:08.581Z,1.67
2023-04-27T11:51:36.153Z,1.63
2023-04-27T11:54:04.447Z,2.15
2023-04-27T11:56:38.579Z,1.33
2023-04-27T11:59:05.749Z,1.42
2023-04-27T12:01:37.956Z,1.30
2023-04-27T12:04:05.214Z,1.42
2023-04-27T12:06:33.754Z,1.25
2023-04-27T12:09:01.872Z,1.45
2023-04-27T12:11:28.312Z,1.52
2023-04-27T12:13:55.898Z,1.30
2023-04-27T12:16:22.725Z,1.40
2023-04-27T12:18:52.289Z,1.55
2023-04-27T12:21:18.809Z,1.63
2023-04-27T12:23:45.238Z,1.40
2023-04-27T12:26:14.418Z,1.35
2023-04-27T12:28:41.668Z,2.00
2023-04-27T12:31:08.269Z,1.75
2023-04-27T12:33:35.112Z,1.70
2023-04-27T12:36:01.665Z,1.67
2023-04-27T12:38:28.224Z,1.40
2023-04-27T12:40:54.749Z,1.13
2023-04-27T12:43:21.210Z,1.30
2023-04-27T12:45:47.600Z,1.25
2023-04-27T12:48:16.969Z,1.73
2023-04-27T12:50:44.135Z,1.55
2023-04-27T12:53:10.558Z,2.03
2023-04-27T12:55:37.261Z,1.88
2023-04-27T12:58:04.836Z,1.58
2023-04-27T13:00:31.420Z,1.70
2023-04-27T13:02:58.539Z,1.83
2023-04-27T13:05:25.946Z,1.30
2023-04-27T13:07:52.745Z,1.45
2023-04-27T13:10:19.188Z,1.23
2023-04-27T13:12:48.106Z,1.90
2023-04-27T13:15:14.536Z,1.95
2023-04-27T13:17:43.495Z,1.75
2023-04-27T13:20:10.871Z,1.35
2023-04-27T13:22:37.328Z,1.27
2023-04-27T13:25:05.974Z,1.60
2023-04-27T13:27:32.412Z,1.30
2023-04-27T13:29:58.808Z,1.60
2023-04-27T13:32:25.481Z,1.35
2023-04-27T13:34:52.020Z,1.83
2023-04-27T13:37:18.729Z,1.35
2023-04-27T13:39:45.580Z,1.70
2023-04-27T13:42:12.420Z,1.65
2023-04-27T13:44:39.037Z,1.30
2023-04-27T13:47:05.771Z,1.70
2023-04-27T13:49:32.269Z,1.58
2023-04-27T13:51:59.804Z,1.40
2023-04-27T13:54:27.153Z,1.33
2023-04-27T13:56:53.579Z,1.15
2023-04-27T13:59:20.104Z,1.38
2023-04-27T14:01:46.493Z,1.67
2023-04-27T14:04:13.120Z,2.08
2023-04-27T14:06:39.581Z,1.40
2023-04-27T14:09:06.188Z,1.58
2023-04-27T14:11:39.438Z,1.45
2023-04-27T14:14:11.789Z,2.15
2023-04-27T14:16:38.326Z,1.40
2023-04-27T14:19:04.981Z,1.33
2023-04-27T14:21:32.181Z,1.45
2023-04-27T14:23:58.617Z,1.75
2023-04-27T14:26:25.140Z,1.73
2023-04-27T14:28:51.823Z,1.52
2023-04-27T14:31:18.258Z,1.80
2023-04-27T14:33:44.677Z,1.40
2023-04-27T14:36:11.140Z,1.35
2023-04-27T14:38:37.537Z,1.67
2023-04-27T14:41:03.987Z,1.42
2023-04-27T14:43:31.659Z,1.65
2023-04-27T14:46:05.051Z,1.50
2023-04-27T14:48:46.405Z,2.08
2023-04-27T14:51:16.408Z,1.58
2023-04-27T14:53:43.870Z,1.60
2023-04-27T14:56:10.966Z,2.22
2023-04-27T14:58:37.470Z,1.52
2023-04-27T15:01:03.997Z,1.30
2023-04-27T15:03:33.558Z,1.45
2023-04-27T15:06:01.391Z,1.60
2023-04-27T15:08:28.163Z,1.33
2023-04-27T15:10:59.719Z,1.67
2023-04-27T15:13:27.197Z,2.65
2023-04-27T15:15:58.337Z,1.95
2023-04-27T15:18:25.618Z,2.00
2023-04-27T15:20:56.458Z,2.00
2023-04-27T15:23:25.438Z,1.70
2023-04-27T15:25:55.669Z,1.98
2023-04-27T15:28:22.202Z,2.20
2023-04-27T15:30:49.296Z,1.90
2023-04-27T15:33:16.499Z,1.55
2023-04-27T15:35:43.054Z,1.90
2023-04-27T15:38:12.116Z,2.05
2023-04-27T15:40:39.276Z,2.85
2023-04-27T15:43:06.016Z,2.80
2023-04-27T15:45:32.686Z,2.00
2023-04-27T15:47:59.390Z,2.22
2023-04-27T15:50:25.989Z,1.88
2023-04-27T15:52:52.911Z,1.73
2023-04-27T15:55:19.687Z,2.33
2023-04-27T15:57:46.224Z,2.10
2023-04-27T16:00:15.171Z,2.00
2023-04-27T16:02:41.913Z,1.55
2023-04-27T16:05:09.701Z,2.20
2023-04-27T16:07:37.239Z,1.73
2023-04-27T16:10:03.954Z,2.08
2023-04-27T16:12:30.622Z,2.00
2023-04-27T16:14:57.688Z,2.72
2023-04-27T16:17:25.144Z,2.63
2023-04-27T16:19:51.682Z,1.85
2023-04-27T16:22:18.576Z,1.95
2023-04-27T16:24:45.382Z,1.70
2023-04-27T16:27:12.047Z,2.22
2023-04-27T16:29:38.785Z,1.63
2023-04-27T16:32:06.196Z,2.00
2023-04-27T16:34:32.701Z,2.15
2023-04-27T16:36:59.175Z,1.67
2023-04-27T16:39:25.699Z,1.80
2023-04-27T16:41:52.436Z,1.88
2023-04-27T16:44:18.844Z,1.98
2023-04-27T16:46:45.712Z,1.85
2023-04-27T16:49:12.227Z,2.58
2023-04-27T16:51:38.760Z,2.30
2023-04-27T16:54:05.266Z,1.90
2023-04-27T16:56:34.813Z,2.47
2023-04-27T16:59:01.792Z,2.00
2023-04-27T17:01:31.418Z,1.90
2023-04-27T17:03:59.566Z,2.33
2023-04-27T17:06:28.034Z,2.60
2023-04-27T17:08:56.002Z,2.67
2023-04-27T17:11:22.755Z,1.88
2023-04-27T17:13:52.243Z,2.13
2023-04-27T17:16:19.662Z,2.17
2023-04-27T17:18:49.293Z,2.83
2023-04-27T17:21:17.084Z,2.22
2023-04-27T17:23:46.457Z,1.85
2023-04-27T17:26:15.729Z,2.78
2023-04-27T17:28:42.172Z,2.22
2023-04-27T17:31:08.689Z,2.40
2023-04-27T17:33:35.325Z,2.30
2023-04-27T17:36:01.798Z,2.05
2023-04-27T17:38:28.302Z,2.10
2023-04-27T17:40:54.726Z,2.15
2023-04-27T17:43:21.337Z,2.17
2023-04-27T17:45:47.752Z,2.30
2023-04-27T17:48:14.400Z,2.10
2023-04-27T17:50:41.077Z,2.47
2023-04-27T17:53:07.889Z,2.35
2023-04-27T17:55:34.467Z,2.20
2023-04-27T17:58:03.647Z,2.13
2023-04-27T18:00:30.507Z,2.58
2023-04-27T18:02:57.345Z,2.55
2023-04-27T18:05:24.072Z,2.88
2023-04-27T18:07:50.732Z,2.10
2023-04-27T18:10:17.264Z,2.83
2023-04-27T18:12:43.772Z,2.45
2023-04-27T18:15:10.581Z,2.47
2023-04-27T18:17:37.121Z,2.22
2023-04-27T18:20:09.796Z,2.58
2023-04-27T18:22:38.360Z,2.22
2023-04-27T18:25:05.337Z,2.17
2023-04-27T18:27:32.908Z,2.38
2023-04-27T18:29:59.595Z,2.30
2023-04-27T18:32:26.095Z,2.33
2023-04-27T18:34:52.686Z,2.92
2023-04-27T18:37:19.176Z,2.63
2023-04-27T18:39:45.787Z,2.75
2023-04-27T18:42:12.366Z,3.40
2023-04-27T18:44:38.849Z,2.38
2023-04-27T18:47:07.540Z,2.90
2023-04-27T18:49:34.093Z,3.00
2023-04-27T18:52:00.586Z,2.90
2023-04-27T18:54:27.155Z,2.92
2023-04-27T18:56:53.840Z,3.17
2023-04-27T18:59:20.366Z,3.22
2023-04-27T19:01:47.013Z,2.90
2023-04-27T19:04:14.655Z,3.25
2023-04-27T19:06:41.480Z,2.95
2023-04-27T19:09:09.142Z,2.95
2023-04-27T19:11:35.935Z,3.55
2023-04-27T19:14:02.470Z,2.92
2023-04-27T19:16:28.973Z,3.40
2023-04-27T19:18:55.495Z,3.78
2023-04-27T19:21:21.910Z,3.40
2023-04-27T19:23:48.372Z,3.95
2023-04-27T19:26:15.089Z,4.20
2023-04-27T19:28:41.822Z,3.35
2023-04-27T19:31:08.474Z,3.80
2023-04-27T19:33:35.243Z,3.67
2023-04-27T19:36:01.808Z,3.67
2023-04-27T19:38:28.361Z,3.15
2023-04-27T19:40:54.808Z,3.53
2023-04-27T19:43:21.534Z,4.65
2023-04-27T19:45:51.170Z,3.53
2023-04-27T19:48:17.736Z,3.22
2023-04-27T19:50:44.377Z,3.40
2023-04-27T19:53:11.174Z,3.42
2023-04-27T19:55:37.876Z,3.55
2023-04-27T19:58:04.631Z,4.28
2023-04-27T20:00:31.145Z,3.75
2023-04-27T20:02:58.006Z,4.03
2023-04-27T20:05:25.190Z,3.80
2023-04-27T20:07:52.416Z,3.92
2023-04-27T20:10:18.957Z,3.92
2023-04-27T20:12:56.274Z,4.18
2023-04-27T20:15:23.652Z,3.90
2023-04-27T20:17:50.096Z,4.18
2023-04-27T20:20:16.643Z,4.28
2023-04-27T20:22:43.153Z,4.25
2023-04-27T20:25:09.868Z,3.75
2023-04-27T20:27:36.489Z,3.83
2023-04-27T20:30:03.765Z,5.55
2023-04-27T20:32:30.219Z,4.68
2023-04-27T20:34:56.662Z,3.97
2023-04-27T20:37:24.724Z,4.15
2023-04-27T20:39:52.085Z,3.63
2023-04-27T20:42:18.699Z,4.40
2023-04-27T20:44:48.472Z,4.57
2023-04-27T20:47:15.127Z,4.30
2023-04-27T20:49:42.061Z,4.30
2023-04-27T20:52:08.807Z,4.32
2023-04-27T20:54:36.117Z,4.15
2023-04-27T20:57:03.629Z,4.18
2023-04-27T20:59:30.173Z,3.75
2023-04-27T21:01:56.921Z,3.92
2023-04-27T21:04:23.407Z,4.30
2023-04-27T21:06:49.916Z,3.90
2023-04-27T21:09:16.292Z,4.10
2023-04-27T21:11:42.730Z,3.80
2023-04-27T21:14:09.269Z,3.38
2023-04-27T21:16:35.840Z,4.47
2023-04-27T21:19:02.241Z,3.63
2023-04-27T21:21:28.688Z,3.40
2023-04-27T21:24:06.684Z,3.10
2023-04-27T21:26:33.540Z,3.58
2023-04-27T21:28:59.961Z,3.63
2023-04-27T21:31:26.401Z,4.28
2023-04-27T21:33:52.983Z,4.05
2023-04-27T21:36:19.807Z,3.95
2023-04-27T21:38:47.126Z,3.40
2023-04-27T21:41:13.783Z,3.88
2023-04-27T21:43:42.014Z,4.15
2023-04-27T21:46:09.208Z,3.90
2023-04-27T21:48:36.201Z,4.15
2023-04-27T21:51:02.755Z,4.50
2023-04-27T21:53:32.333Z,4.95
2023-04-27T21:55:59.007Z,4.50
2023-04-27T21:58:25.950Z,3.60
2023-04-27T22:00:52.411Z,4.50
2023-04-27T22:03:18.956Z,4.03
2023-04-27T22:05:48.698Z,4.25
2023-04-27T22:08:15.134Z,4.05
2023-04-27T22:10:41.671Z,4.50
2023-04-27T22:13:18.774Z,4.05
2023-04-27T22:15:46.116Z,5.32
2023-04-27T22:18:14.255Z,4.40
2023-04-27T22:20:40.999Z,3.97
2023-04-27T22:23:07.644Z,4.78
2023-04-27T22:25:34.050Z,3.50
2023-04-27T22:28:01.585Z,4.22
2023-04-27T22:30:28.976Z,4.13
2023-04-27T22:32:56.675Z,3.60
2023-04-27T22:35:27.152Z,4.28
2023-04-27T22:37:57.684Z,4.07
2023-04-27T22:40:24.527Z,4.13
2023-04-27T22:42:51.338Z,3.42
2023-04-27T22:45:17.965Z,4.35
2023-04-27T22:47:45.774Z,4.10
2023-04-27T22:50:13.412Z,3.63
2023-04-27T22:52:42.249Z,3.53
2023-04-27T22:55:09.998Z,4.30
2023-04-27T22:57:36.799Z,4.00
2023-04-27T23:00:05.369Z,4.20
2023-04-27T23:02:32.312Z,4.20
2023-04-27T23:04:59.074Z,3.85
2023-04-27T23:07:25.540Z,4.55
2023-04-27T23:09:52.752Z,4.15
2023-04-27T23:12:20.630Z,4.13
2023-04-27T23:14:47.117Z,3.83
2023-04-27T23:17:15.307Z,3.92
2023-04-27T23:19:41.846Z,3.53
2023-04-27T23:22:08.299Z,4.18
2023-04-27T23:24:34.755Z,3.63
2023-04-27T23:27:01.206Z,5.45
2023-04-27T23:29:27.854Z,4.85
2023-04-27T23:31:54.272Z,5.05
2023-04-27T23:34:20.671Z,4.20
2023-04-27T23:36:47.295Z,5.03
2023-04-27T23:39:13.753Z,4.65
2023-04-27T23:41:40.179Z,4.10
2023-04-27T23:44:06.829Z,3.90
2023-04-27T23:46:33.416Z,4.60
2023-04-27T23:48:59.858Z,4.57
2023-04-27T23:51:27.028Z,4.20
2023-04-27T23:53:53.452Z,4.72
2023-04-27T23:56:19.930Z,4.05
2023-04-27T23:58:46.374Z,3.90
